createdAt,value
2018-02-04T00:02:10.640Z,73.30
2018-02-04T00:04:38.467Z,73.10
2018-02-04T00:07:06.075Z,72.60
2018-02-04T00:09:33.695Z,71.70
2018-02-04T00:12:01.317Z,71.30
2018-02-04T00:14:28.960Z,71.20
2018-02-04T00:16:57.380Z,71.10
2018-02-04T00:19:25.005Z,71.10
2018-02-04T00:21:53.413Z,71.00
2018-02-04T00:24:21.019Z,71.00
2018-02-04T00:26:48.618Z,71.10
2018-02-04T00:29:16.261Z,71.00
2018-02-04T00:31:43.907Z,71.00
2018-02-04T00:34:11.572Z,71.10
2018-02-04T00:36:39.198Z,71.50
2018-02-04T00:39:07.598Z,71.70
2018-02-04T00:41:35.348Z,71.70
2018-02-04T00:44:03.696Z,72.30
2018-02-04T00:46:31.336Z,72.30
2018-02-04T00:48:58.956Z,72.50
2018-02-04T00:51:27.382Z,73.00
2018-02-04T00:53:55.052Z,72.90
2018-02-04T00:56:22.702Z,73.40
2018-02-04T00:58:50.334Z,73.60
2018-02-04T01:01:17.954Z,74.00
2018-02-04T01:03:45.617Z,74.00
2018-02-04T01:06:13.242Z,74.00
2018-02-04T01:08:41.716Z,73.60
2018-02-04T01:11:09.342Z,73.60
2018-02-04T01:13:36.978Z,73.60
2018-02-04T01:16:04.620Z,73.60
2018-02-04T01:18:32.234Z,74.10
2018-02-04T01:20:59.886Z,73.60
2018-02-04T01:23:27.507Z,73.60
2018-02-04T01:25:55.162Z,73.50
2018-02-04T01:28:22.796Z,73.60
2018-02-04T01:30:50.438Z,73.60
2018-02-04T01:33:18.844Z,73.50
2018-02-04T01:35:46.473Z,73.50
2018-02-04T01:38:14.870Z,73.70
2018-02-04T01:40:42.519Z,73.70
2018-02-04T01:43:10.161Z,73.70
2018-02-04T01:45:37.757Z,73.70
2018-02-04T01:48:08.191Z,73.70
2018-02-04T01:50:36.567Z,73.80
2018-02-04T01:53:04.223Z,73.70
2018-02-04T01:55:31.938Z,73.80
2018-02-04T01:57:59.551Z,73.80
2018-02-04T02:00:27.197Z,73.70
2018-02-04T02:02:54.825Z,73.80
2018-02-04T02:05:22.476Z,73.70
2018-02-04T02:07:50.869Z,73.90
2018-02-04T02:10:19.247Z,73.90
2018-02-04T02:12:47.684Z,73.80
2018-02-04T02:15:15.307Z,73.70
2018-02-04T02:17:42.986Z,73.80
2018-02-04T02:20:10.632Z,73.90
2018-02-04T02:22:38.294Z,73.70
2018-02-04T02:25:06.673Z,73.30
2018-02-04T02:27:35.105Z,73.20
2018-02-04T02:30:02.780Z,73.20
2018-02-04T02:32:30.388Z,73.40
2018-02-04T02:34:58.790Z,73.40
2018-02-04T02:37:27.172Z,73.40
2018-02-04T02:39:54.818Z,73.40
2018-02-04T02:42:22.420Z,73.40
2018-02-04T02:44:50.085Z,73.50
2018-02-04T02:47:17.686Z,73.40
2018-02-04T02:49:45.319Z,73.40
2018-02-04T02:52:12.930Z,73.40
2018-02-04T02:54:40.532Z,73.40
2018-02-04T02:57:08.946Z,73.40
2018-02-04T02:59:36.602Z,73.40
2018-02-04T03:02:04.250Z,73.40
2018-02-04T03:04:32.638Z,73.30
2018-02-04T03:07:01.041Z,73.40
2018-02-04T03:09:28.678Z,73.90
2018-02-04T03:11:57.080Z,73.50
2018-02-04T03:14:24.723Z,73.50
2018-02-04T03:16:53.124Z,73.40
2018-02-04T03:19:21.661Z,73.40
2018-02-04T03:21:49.260Z,73.40
2018-02-04T03:24:17.667Z,73.50
2018-02-04T03:26:45.279Z,73.50
2018-02-04T03:29:12.881Z,73.50
2018-02-04T03:31:41.301Z,73.60
2018-02-04T03:34:08.935Z,73.60
2018-02-04T03:36:37.357Z,73.70
2018-02-04T03:39:04.967Z,73.70
2018-02-04T03:41:32.645Z,73.80
2018-02-04T03:44:01.043Z,73.60
2018-02-04T03:46:28.726Z,73.60
2018-02-04T03:48:57.096Z,73.50
2018-02-04T03:51:24.732Z,73.60
2018-02-04T03:53:52.368Z,73.60
2018-02-04T03:56:20.009Z,73.40
2018-02-04T03:58:47.621Z,73.50
2018-02-04T04:01:15.279Z,73.40
2018-02-04T04:03:42.915Z,73.30
2018-02-04T04:06:10.559Z,73.10
2018-02-04T04:08:38.944Z,73.30
2018-02-04T04:11:07.396Z,73.40
2018-02-04T04:13:35.025Z,73.40
2018-02-04T04:16:02.654Z,73.30
2018-02-04T04:18:31.048Z,73.30
2018-02-04T04:20:58.684Z,73.30
2018-02-04T04:23:26.312Z,73.40
2018-02-04T04:25:53.992Z,73.50
2018-02-04T04:28:21.895Z,73.50
2018-02-04T04:30:49.504Z,73.50
2018-02-04T04:33:17.108Z,73.50
2018-02-04T04:35:44.742Z,73.50
2018-02-04T04:38:12.410Z,73.40
2018-02-04T04:40:40.412Z,73.50
2018-02-04T04:43:08.056Z,73.50
2018-02-04T04:45:35.689Z,73.70
2018-02-04T04:48:03.328Z,73.60
2018-02-04T04:50:30.974Z,73.60
2018-02-04T04:52:59.227Z,73.50
2018-02-04T04:55:27.678Z,73.30
2018-02-04T04:57:56.106Z,73.30
2018-02-04T05:00:23.736Z,73.30
2018-02-04T05:02:52.138Z,73.10
2018-02-04T05:05:19.798Z,73.10
2018-02-04T05:07:47.379Z,73.20
2018-02-04T05:10:15.091Z,73.10
2018-02-04T05:12:42.735Z,73.00
2018-02-04T05:15:10.707Z,73.00
2018-02-04T05:17:38.395Z,72.90
2018-02-04T05:20:06.017Z,73.70
2018-02-04T05:22:33.655Z,73.20
2018-02-04T05:25:02.031Z,72.90
2018-02-04T05:27:29.957Z,72.80
2018-02-04T05:29:57.548Z,72.80
2018-02-04T05:32:25.161Z,72.90
2018-02-04T05:34:52.771Z,72.90
2018-02-04T05:37:20.375Z,73.10
2018-02-04T05:39:48.795Z,73.20
2018-02-04T05:42:16.433Z,73.20
2018-02-04T05:44:45.187Z,73.30
2018-02-04T05:47:12.803Z,73.30
2018-02-04T05:49:40.403Z,73.40
2018-02-04T05:52:08.157Z,73.30
2018-02-04T05:54:35.785Z,73.30
2018-02-04T05:57:04.181Z,73.20
2018-02-04T05:59:32.583Z,73.20
2018-02-04T06:02:00.317Z,73.20
2018-02-04T06:04:28.732Z,73.50
2018-02-04T06:06:56.373Z,73.50
2018-02-04T06:09:24.842Z,73.50
2018-02-04T06:11:52.477Z,73.50
2018-02-04T06:14:20.099Z,73.50
2018-02-04T06:16:48.522Z,73.80
2018-02-04T06:19:16.139Z,73.80
2018-02-04T06:21:44.568Z,74.00
2018-02-04T06:24:12.198Z,74.00
2018-02-04T06:26:40.616Z,74.20
2018-02-04T06:29:08.266Z,74.20
2018-02-04T06:31:35.870Z,74.70
2018-02-04T06:34:03.516Z,74.10
2018-02-04T06:36:31.158Z,74.00
2018-02-04T06:38:58.798Z,73.90
2018-02-04T06:41:26.424Z,74.00
2018-02-04T06:43:54.066Z,74.10
2018-02-04T06:46:21.724Z,74.20
2018-02-04T06:48:49.394Z,74.30
2018-02-04T06:51:17.009Z,74.40
2018-02-04T06:53:44.752Z,74.40
2018-02-04T06:56:12.408Z,74.50
2018-02-04T06:58:40.039Z,74.50
2018-02-04T07:01:07.740Z,74.50
2018-02-04T07:03:35.398Z,74.40
2018-02-04T07:06:03.040Z,74.20
2018-02-04T07:08:31.439Z,74.20
2018-02-04T07:10:59.132Z,73.80
2018-02-04T07:13:26.805Z,73.80
2018-02-04T07:15:54.425Z,73.70
2018-02-04T07:18:22.811Z,73.50
2018-02-04T07:20:51.215Z,73.40
2018-02-04T07:23:18.877Z,73.40
2018-02-04T07:25:47.291Z,74.10
2018-02-04T07:28:14.905Z,73.40
2018-02-04T07:30:43.367Z,73.80
2018-02-04T07:33:11.035Z,73.80
2018-02-04T07:35:38.703Z,73.70
2018-02-04T07:38:06.373Z,73.50
2018-02-04T07:40:34.005Z,73.40
2018-02-04T07:43:01.659Z,73.30
2018-02-04T07:45:29.277Z,73.40
2018-02-04T07:47:56.891Z,73.50
2018-02-04T07:50:24.539Z,73.60
2018-02-04T07:52:52.966Z,73.60
2018-02-04T07:55:20.591Z,73.50
2018-02-04T07:57:48.965Z,73.70
2018-02-04T08:00:17.361Z,73.70
2018-02-04T08:02:45.761Z,74.50
2018-02-04T08:05:13.409Z,74.60
2018-02-04T08:07:41.797Z,72.70
2018-02-04T08:10:09.475Z,72.70
2018-02-04T08:12:37.114Z,72.30
2018-02-04T08:15:04.775Z,72.10
2018-02-04T08:17:32.480Z,71.80
2018-02-04T08:20:00.109Z,71.10
2018-02-04T08:22:28.537Z,72.70
2018-02-04T08:24:56.167Z,72.50
2018-02-04T08:27:24.696Z,73.10
2018-02-04T08:29:52.434Z,73.10
2018-02-04T08:32:20.044Z,73.10
2018-02-04T08:34:47.649Z,72.80
2018-02-04T08:37:16.015Z,72.50
2018-02-04T08:39:43.656Z,72.50
2018-02-04T08:42:11.252Z,72.20
2018-02-04T08:44:38.842Z,71.80
2018-02-04T08:47:06.644Z,71.30
2018-02-04T08:49:34.248Z,72.00
2018-02-04T08:52:01.860Z,71.40
2018-02-04T08:54:29.458Z,71.30
2018-02-04T08:56:57.056Z,71.30
2018-02-04T08:59:25.428Z,71.40
2018-02-04T09:01:53.022Z,71.10
2018-02-04T09:04:20.660Z,70.90
2018-02-04T09:06:49.034Z,71.20
2018-02-04T09:09:16.684Z,71.60
2018-02-04T09:11:44.430Z,71.50
2018-02-04T09:14:12.043Z,71.10
2018-02-04T09:16:40.424Z,71.10
2018-02-04T09:19:08.887Z,70.20
2018-02-04T09:21:36.488Z,70.20
2018-02-04T09:24:04.871Z,69.30
2018-02-04T09:26:33.271Z,68.90
2018-02-04T09:29:01.659Z,69.00
2018-02-04T09:31:29.251Z,69.00
2018-02-04T09:33:56.859Z,68.80
2018-02-04T09:36:24.811Z,68.80
2018-02-04T09:38:52.511Z,69.10
2018-02-04T09:41:20.862Z,69.90
2018-02-04T09:43:48.485Z,69.40
2018-02-04T09:46:16.134Z,69.10
2018-02-04T09:48:44.505Z,69.40
2018-02-04T09:51:12.220Z,69.40
2018-02-04T09:53:39.819Z,69.90
2018-02-04T09:56:07.431Z,69.40
2018-02-04T09:58:35.094Z,69.60
2018-02-04T10:01:02.727Z,69.70
2018-02-04T10:03:30.372Z,69.70
2018-02-04T10:05:57.982Z,69.40
2018-02-04T10:08:26.341Z,69.30
2018-02-04T10:10:53.993Z,69.40
2018-02-04T10:13:21.626Z,69.40
2018-02-04T10:15:49.264Z,69.20
2018-02-04T10:18:17.635Z,68.70
2018-02-04T10:20:45.995Z,69.10
2018-02-04T10:23:13.644Z,69.10
2018-02-04T10:25:41.257Z,68.90
2018-02-04T10:28:09.665Z,69.50
2018-02-04T10:30:37.283Z,69.40
2018-02-04T10:33:04.889Z,69.70
2018-02-04T10:35:32.559Z,69.70
2018-02-04T10:38:00.187Z,69.50
2018-02-04T10:40:28.569Z,68.80
2018-02-04T10:42:57.675Z,68.80
2018-02-04T10:45:25.298Z,68.90
2018-02-04T10:47:52.972Z,69.00
2018-02-04T10:50:20.611Z,68.50
2018-02-04T10:52:48.297Z,68.70
2018-02-04T10:55:15.909Z,68.20
2018-02-04T10:57:43.588Z,68.10
2018-02-04T11:00:12.026Z,68.90
2018-02-04T11:02:39.697Z,68.90
2018-02-04T11:05:07.653Z,69.20
2018-02-04T11:07:35.301Z,69.40
2018-02-04T11:10:03.057Z,69.70
2018-02-04T11:12:30.697Z,70.00
2018-02-04T11:14:58.323Z,69.80
2018-02-04T11:17:26.170Z,69.80
2018-02-04T11:19:53.797Z,69.60
2018-02-04T11:22:22.968Z,68.20
2018-02-04T11:24:50.616Z,68.20
2018-02-04T11:27:18.301Z,68.40
2018-02-04T11:29:46.070Z,68.60
2018-02-04T11:32:20.768Z,68.40
2018-02-04T11:34:48.452Z,68.40
2018-02-04T11:37:17.026Z,68.40
2018-02-04T11:39:44.668Z,68.00
2018-02-04T11:42:13.126Z,68.10
2018-02-04T11:44:40.974Z,68.10
2018-02-04T11:47:08.826Z,68.10
2018-02-04T11:49:36.511Z,67.30
2018-02-04T11:52:04.700Z,66.50
2018-02-04T11:54:32.350Z,64.50
2018-02-04T11:56:59.998Z,62.60
2018-02-04T11:59:27.717Z,60.50
2018-02-04T12:01:55.365Z,59.10
2018-02-04T12:04:23.006Z,56.80
2018-02-04T12:06:50.670Z,54.60
2018-02-04T12:09:18.318Z,53.30
2018-02-04T12:11:46.768Z,49.10
2018-02-04T12:14:14.416Z,49.00
2018-02-04T12:16:42.084Z,47.90
2018-02-04T12:19:09.820Z,48.50
2018-02-04T12:21:37.920Z,49.00
2018-02-04T12:24:05.620Z,47.80
2018-02-04T12:26:34.044Z,46.60
2018-02-04T12:29:01.787Z,46.50
2018-02-04T12:31:30.170Z,50.20
2018-02-04T12:33:58.611Z,48.50
2018-02-04T12:36:26.220Z,48.40
2018-02-04T12:38:54.924Z,47.50
2018-02-04T12:41:23.659Z,47.40
2018-02-04T12:43:51.339Z,46.60
2018-02-04T12:46:19.105Z,49.80
2018-02-04T12:48:46.797Z,48.30
2018-02-04T12:51:14.419Z,46.20
2018-02-04T12:53:42.068Z,45.30
2018-02-04T12:56:09.691Z,45.60
2018-02-04T12:58:38.097Z,43.30
2018-02-04T13:01:06.527Z,44.90
2018-02-04T13:03:34.155Z,44.90
2018-02-04T13:06:01.795Z,45.00
2018-02-04T13:08:29.617Z,46.30
2018-02-04T13:10:57.224Z,48.10
2018-02-04T13:13:24.925Z,48.40
2018-02-04T13:15:53.307Z,49.40
2018-02-04T13:18:21.669Z,48.30
2018-02-04T13:20:49.329Z,48.30
2018-02-04T13:23:16.941Z,49.20
2018-02-04T13:25:44.537Z,49.10
2018-02-04T13:28:12.209Z,50.60
2018-02-04T13:30:39.869Z,60.00
2018-02-04T13:33:07.494Z,58.30
2018-02-04T13:35:35.103Z,49.10
2018-02-04T13:38:02.771Z,50.00
2018-02-04T13:40:30.536Z,50.80
2018-02-04T13:42:58.220Z,51.80
2018-02-04T13:45:26.624Z,54.50
2018-02-04T13:47:54.223Z,54.50
2018-02-04T13:50:21.907Z,54.70
2018-02-04T13:52:49.542Z,56.00
2018-02-04T13:55:17.342Z,56.80
2018-02-04T13:57:44.994Z,55.60
2018-02-04T14:00:12.608Z,56.10
2018-02-04T14:02:41.704Z,56.50
2018-02-04T14:05:09.366Z,56.50
2018-02-04T14:07:37.766Z,56.60
2018-02-04T14:10:06.150Z,58.30
2018-02-04T14:12:35.492Z,57.70
2018-02-04T14:15:04.374Z,56.80
2018-02-04T14:17:32.756Z,55.70
2018-02-04T14:20:00.420Z,55.50
2018-02-04T14:22:28.828Z,57.80
2018-02-04T14:24:56.484Z,57.80
2018-02-04T14:27:24.142Z,67.80
2018-02-04T14:29:52.688Z,54.60
2018-02-04T14:32:21.153Z,55.50
2018-02-04T14:34:48.803Z,55.70
2018-02-04T14:37:16.496Z,55.60
2018-02-04T14:39:44.124Z,56.60
2018-02-04T14:42:11.735Z,57.20
2018-02-04T14:44:39.367Z,57.90
2018-02-04T14:47:06.973Z,57.80
2018-02-04T14:49:36.143Z,57.50
2018-02-04T14:52:03.792Z,57.50
2018-02-04T14:54:31.473Z,59.10
2018-02-04T14:56:59.091Z,59.20
2018-02-04T14:59:26.962Z,60.10
2018-02-04T15:01:55.481Z,60.60
2018-02-04T15:04:23.129Z,60.60
2018-02-04T15:06:51.669Z,60.00
2018-02-04T15:09:19.317Z,60.00
2018-02-04T15:11:46.990Z,61.20
2018-02-04T15:14:14.603Z,60.50
2018-02-04T15:16:42.290Z,60.10
2018-02-04T15:19:10.674Z,60.50
2018-02-04T15:21:39.085Z,60.60
2018-02-04T15:24:06.713Z,60.50
2018-02-04T15:26:35.104Z,61.00
2018-02-04T15:29:03.492Z,60.90
2018-02-04T15:31:31.214Z,60.90
2018-02-04T15:33:58.916Z,60.80
2018-02-04T15:36:27.428Z,62.00
2018-02-04T15:38:55.125Z,62.00
2018-02-04T15:41:22.756Z,62.50
2018-02-04T15:43:50.385Z,63.50
2018-02-04T15:46:18.784Z,64.90
2018-02-04T15:48:47.190Z,65.50
2018-02-04T15:51:15.808Z,65.40
2018-02-04T15:53:43.550Z,66.00
2018-02-04T15:56:11.191Z,66.30
2018-02-04T15:58:38.844Z,66.30
2018-02-04T16:01:07.271Z,68.20
2018-02-04T16:03:34.919Z,68.50
2018-02-04T16:06:02.566Z,67.30
2018-02-04T16:08:31.026Z,64.80
2018-02-04T16:10:58.678Z,64.80
2018-02-04T16:13:26.402Z,65.30
2018-02-04T16:15:54.460Z,65.60
2018-02-04T16:18:22.905Z,66.80
2018-02-04T16:20:51.404Z,67.30
2018-02-04T16:23:19.220Z,67.40
2018-02-04T16:25:47.710Z,68.50
2018-02-04T16:28:16.221Z,68.60
2018-02-04T16:30:43.883Z,68.50
2018-02-04T16:33:11.666Z,68.70
2018-02-04T16:35:39.341Z,68.70
2018-02-04T16:38:07.046Z,68.60
2018-02-04T16:40:35.768Z,68.80
2018-02-04T16:43:03.540Z,68.80
2018-02-04T16:45:31.271Z,71.60
2018-02-04T16:47:59.009Z,73.10
2018-02-04T16:50:26.728Z,73.10
2018-02-04T16:52:54.416Z,66.40
2018-02-04T16:55:22.179Z,68.50
2018-02-04T16:57:49.820Z,66.20
2018-02-04T17:00:18.311Z,68.80
2018-02-04T17:02:46.724Z,66.30
2018-02-04T17:05:14.390Z,66.30
2018-02-04T17:07:42.074Z,67.50
2018-02-04T17:10:09.679Z,65.70
2018-02-04T17:12:37.337Z,66.80
2018-02-04T17:15:05.007Z,67.40
2018-02-04T17:17:32.765Z,67.60
2018-02-04T17:20:01.203Z,68.60
2018-02-04T17:22:28.854Z,68.70
2018-02-04T17:24:56.546Z,68.80
2018-02-04T17:27:24.229Z,69.10
2018-02-04T17:29:51.939Z,69.70
2018-02-04T17:32:19.775Z,70.00
2018-02-04T17:34:47.477Z,70.20
2018-02-04T17:37:16.009Z,70.50
2018-02-04T17:39:43.699Z,70.50
2018-02-04T17:42:11.420Z,70.50
2018-02-04T17:44:39.113Z,70.50
2018-02-04T17:47:06.767Z,70.70
2018-02-04T17:49:34.500Z,70.70
2018-02-04T17:52:02.941Z,70.90
2018-02-04T17:54:30.848Z,70.90
2018-02-04T17:56:59.304Z,70.90
2018-02-04T17:59:26.966Z,70.90
2018-02-04T18:01:54.620Z,70.90
2018-02-04T18:04:22.286Z,71.10
2018-02-04T18:06:50.214Z,71.20
2018-02-04T18:09:19.364Z,71.30
2018-02-04T18:11:47.130Z,71.20
2018-02-04T18:14:14.821Z,71.30
2018-02-04T18:16:42.784Z,71.10
2018-02-04T18:19:10.549Z,71.10
2018-02-04T18:21:38.227Z,71.00
2018-02-04T18:24:05.927Z,71.10
2018-02-04T18:26:33.603Z,71.10
2018-02-04T18:29:02.086Z,71.30
2018-02-04T18:31:30.575Z,71.20
2018-02-04T18:33:59.048Z,71.40
2018-02-04T18:36:27.513Z,71.40
2018-02-04T18:38:56.047Z,71.50
2018-02-04T18:41:23.749Z,71.50
2018-02-04T18:43:52.429Z,71.50
2018-02-04T18:46:20.289Z,71.60
2018-02-04T18:48:48.000Z,71.40
2018-02-04T18:51:16.495Z,71.60
2018-02-04T18:53:44.319Z,71.50
2018-02-04T18:56:12.020Z,71.50
2018-02-04T18:58:41.217Z,71.40
2018-02-04T19:01:10.613Z,71.40
2018-02-04T19:03:38.440Z,71.40
2018-02-04T19:06:06.185Z,71.40
2018-02-04T19:08:34.780Z,71.40
2018-02-04T19:11:02.672Z,71.30
2018-02-04T19:13:30.981Z,71.20
2018-02-04T19:15:58.735Z,71.20
2018-02-04T19:18:27.312Z,71.60
2018-02-04T19:20:56.222Z,71.60
2018-02-04T19:23:23.993Z,71.60
2018-02-04T19:25:51.730Z,71.50
2018-02-04T19:28:20.225Z,71.60
2018-02-04T19:30:47.918Z,71.60
2018-02-04T19:33:15.898Z,71.70
2018-02-04T19:35:43.688Z,71.60
2018-02-04T19:38:11.428Z,71.40
2018-02-04T19:40:39.177Z,71.60
2018-02-04T19:43:06.914Z,71.70
2018-02-04T19:45:35.432Z,71.60
2018-02-04T19:48:04.267Z,71.60
2018-02-04T19:50:31.969Z,71.40
2018-02-04T19:53:01.650Z,71.40
2018-02-04T19:55:29.366Z,71.40
2018-02-04T19:57:57.394Z,71.30
2018-02-04T20:00:25.162Z,71.40
2018-02-04T20:02:52.896Z,71.50
2018-02-04T20:05:20.677Z,71.70
2018-02-04T20:07:48.455Z,71.80
2018-02-04T20:10:16.187Z,71.50
2018-02-04T20:12:44.291Z,71.40
2018-02-04T20:15:12.172Z,71.50
2018-02-04T20:17:40.131Z,71.60
2018-02-04T20:20:08.108Z,72.00
2018-02-04T20:22:35.883Z,72.00
2018-02-04T20:25:03.619Z,71.70
2018-02-04T20:27:31.828Z,71.60
2018-02-04T20:30:00.533Z,71.90
2018-02-04T20:32:40.037Z,72.30
2018-02-04T20:35:07.793Z,72.40
2018-02-04T20:37:35.540Z,72.80
2018-02-04T20:40:04.031Z,72.70
2018-02-04T20:42:33.465Z,73.30
2018-02-04T20:45:01.688Z,73.10
2018-02-04T20:47:29.443Z,73.50
2018-02-04T20:49:57.198Z,73.90
2018-02-04T20:52:25.275Z,74.50
2018-02-04T20:54:53.069Z,74.70
2018-02-04T20:57:20.855Z,74.90
2018-02-04T20:59:49.338Z,75.10
2018-02-04T21:02:17.069Z,75.20
2018-02-04T21:04:44.810Z,75.30
2018-02-04T21:07:14.154Z,75.40
2018-02-04T21:09:42.734Z,75.40
2018-02-04T21:12:10.706Z,75.10
2018-02-04T21:14:38.430Z,75.10
2018-02-04T21:17:11.048Z,75.00
2018-02-04T21:19:38.750Z,74.90
2018-02-04T21:22:07.110Z,74.70
2018-02-04T21:24:35.004Z,74.70
2018-02-04T21:27:02.858Z,74.60
2018-02-04T21:29:30.530Z,74.50
2018-02-04T21:31:58.227Z,74.50
2018-02-04T21:34:25.883Z,74.40
2018-02-04T21:36:53.559Z,74.40
2018-02-04T21:39:21.204Z,74.30
2018-02-04T21:41:48.822Z,74.10
2018-02-04T21:44:17.308Z,74.20
2018-02-04T21:46:45.819Z,74.30
2018-02-04T21:49:13.472Z,74.30
2018-02-04T21:51:41.090Z,74.20
2018-02-04T21:54:08.768Z,74.10
2018-02-04T21:56:36.383Z,74.00
2018-02-04T21:59:04.084Z,73.70
2018-02-04T22:01:32.487Z,73.50
2018-02-04T22:04:00.201Z,73.40
2018-02-04T22:06:27.851Z,73.30
2018-02-04T22:08:56.227Z,73.10
2018-02-04T22:11:24.639Z,72.80
2018-02-04T22:13:52.239Z,72.80
2018-02-04T22:16:19.891Z,72.70
2018-02-04T22:18:48.315Z,72.70
2018-02-04T22:21:16.699Z,73.30
2018-02-04T22:23:44.329Z,72.70
2018-02-04T22:26:11.957Z,72.80
2018-02-04T22:28:39.581Z,72.80
2018-02-04T22:31:07.181Z,73.00
2018-02-04T22:33:35.607Z,72.40
2018-02-04T22:36:03.204Z,72.40
2018-02-04T22:38:32.320Z,72.10
2018-02-04T22:41:00.692Z,72.20
2018-02-04T22:43:29.059Z,72.20
2018-02-04T22:45:56.781Z,72.20
2018-02-04T22:48:24.393Z,72.30
2018-02-04T22:50:52.040Z,72.40
2018-02-04T22:53:19.639Z,72.50
2018-02-04T22:55:48.019Z,73.10
2018-02-04T22:58:17.170Z,73.00
2018-02-04T23:00:44.786Z,73.00
2018-02-04T23:03:12.406Z,73.20
2018-02-04T23:05:39.999Z,73.40
2018-02-04T23:08:07.634Z,73.40
2018-02-04T23:10:35.258Z,73.60
2018-02-04T23:13:02.870Z,73.70
2018-02-04T23:15:30.509Z,73.70
2018-02-04T23:17:58.882Z,73.80
2018-02-04T23:20:26.526Z,73.80
2018-02-04T23:22:55.880Z,74.50
2018-02-04T23:25:23.522Z,74.50
2018-02-04T23:27:51.886Z,74.70
2018-02-04T23:30:20.256Z,74.60
2018-02-04T23:32:47.884Z,74.50
2018-02-04T23:35:15.610Z,74.40
2018-02-04T23:37:43.724Z,74.30
2018-02-04T23:40:11.338Z,74.20
2018-02-04T23:42:38.953Z,74.10
2018-02-04T23:45:06.587Z,74.30
2018-02-04T23:47:34.976Z,74.20
2018-02-04T23:50:03.355Z,74.30
2018-02-04T23:52:31.767Z,74.40
2018-02-04T23:54:59.355Z,74.40
2018-02-04T23:57:26.979Z,74.50
2018-02-04T23:59:55.347Z,74.60
